EXS121 EGPF-LEMG
Flight info
| Callsign | EXS121 |
|---|---|
| Flight time | N/A |
| Altitude | 34000 |
| Route | NORBO L186 TRN P600 BLACA/N0448F380 DCT PEPOD DCT NIMAT DCT BEPAN/N0459F370 DCT DIMUS DCT BANBA DCT PAVLO DCT DOLUR DCT IDRIK DCT DELOG DCT CRISA DCT VULPE |
| Aircraft | B38M/M-SDE1FGHILORVWXY/HB1 |
Departure
| Time | 2026-04-29 10:19 |
|---|---|
| Airport | Glasgow Airport (EGPF) |
Arrival
| Time | N/A |
|---|---|
| Airport | Málaga-Costa del Sol Airport (LEMG) |
| Time | Latitude | Longitude | Altitude | Speed | Heading |
|---|---|---|---|---|---|
| 2026-04-29 10:09 | 55.86676 | -4.43314 | 32 ft | 0 kts | 253° |
| 2026-04-29 10:10 | 55.86680 | -4.43296 | 31 ft | 3 kts | 234° |
| 2026-04-29 10:10 | 55.86689 | -4.43279 | 31 ft | 0 kts | 211° |
| 2026-04-29 10:11 | 55.86697 | -4.43270 | 31 ft | 2 kts | 226° |
| 2026-04-29 10:11 | 55.86705 | -4.43251 | 30 ft | 2 kts | 268° |
| 2026-04-29 10:12 | 55.86702 | -4.43232 | 29 ft | 2 kts | 311° |
| 2026-04-29 10:12 | 55.86702 | -4.43231 | 32 ft | 0 kts | 311° |
| 2026-04-29 10:12 | 55.86707 | -4.43238 | 30 ft | 2 kts | 318° |
| 2026-04-29 10:12 | 55.86726 | -4.43254 | 29 ft | 4 kts | 342° |
| 2026-04-29 10:13 | 55.86753 | -4.43269 | 32 ft | 4 kts | 342° |
| 2026-04-29 10:13 | 55.86778 | -4.43287 | 32 ft | 4 kts | 328° |
| 2026-04-29 10:13 | 55.86791 | -4.43323 | 32 ft | 4 kts | 288° |
| 2026-04-29 10:13 | 55.86788 | -4.43383 | 30 ft | 6 kts | 253° |
| 2026-04-29 10:14 | 55.86772 | -4.43475 | 29 ft | 9 kts | 253° |
| 2026-04-29 10:14 | 55.86754 | -4.43593 | 31 ft | 11 kts | 255° |
| 2026-04-29 10:14 | 55.86728 | -4.43735 | 28 ft | 13 kts | 238° |
| 2026-04-29 10:14 | 55.86666 | -4.43873 | 29 ft | 14 kts | 228° |
| 2026-04-29 10:15 | 55.86602 | -4.43994 | 30 ft | 14 kts | 226° |
| 2026-04-29 10:15 | 55.86537 | -4.44116 | 32 ft | 13 kts | 226° |
| 2026-04-29 10:15 | 55.86480 | -4.44224 | 34 ft | 12 kts | 226° |
| 2026-04-29 10:15 | 55.86418 | -4.44340 | 33 ft | 14 kts | 226° |
| 2026-04-29 10:16 | 55.86361 | -4.44447 | 33 ft | 10 kts | 226° |
| 2026-04-29 10:16 | 55.86317 | -4.44529 | 31 ft | 8 kts | 226° |
| 2026-04-29 10:16 | 55.86282 | -4.44593 | 30 ft | 6 kts | 226° |
| 2026-04-29 10:16 | 55.86263 | -4.44629 | 30 ft | 3 kts | 227° |
| 2026-04-29 10:17 | 55.86254 | -4.44662 | 31 ft | 4 kts | 252° |
| 2026-04-29 10:17 | 55.86263 | -4.44729 | 30 ft | 7 kts | 305° |
| 2026-04-29 10:17 | 55.86302 | -4.44795 | 32 ft | 9 kts | 317° |
| 2026-04-29 10:17 | 55.86355 | -4.44852 | 34 ft | 10 kts | 355° |
| 2026-04-29 10:18 | 55.86419 | -4.44773 | 33 ft | 13 kts | 45° |
| 2026-04-29 10:18 | 55.86480 | -4.44661 | 37 ft | 12 kts | 46° |
| 2026-04-29 10:18 | 55.86554 | -4.44521 | 37 ft | 28 kts | 47° |
| 2026-04-29 10:18 | 55.86850 | -4.43974 | 31 ft | 92 kts | 46° |
| 2026-04-29 10:19 | 55.87394 | -4.42925 | 33 ft | 140 kts | 49° |
| 2026-04-29 10:19 | 55.88070 | -4.41605 | 362 ft | 142 kts | 49° |
| 2026-04-29 10:19 | 55.88720 | -4.40357 | 914 ft | 140 kts | 50° |
| 2026-04-29 10:19 | 55.89397 | -4.38828 | 932 ft | 172 kts | 50° |
| 2026-04-29 10:20 | 55.90316 | -4.37309 | 1203 ft | 185 kts | 43° |
| 2026-04-29 10:20 | 55.91269 | -4.35708 | 1642 ft | 190 kts | 47° |
| 2026-04-29 10:20 | 55.92199 | -4.33988 | 2082 ft | 195 kts | 50° |
| 2026-04-29 10:20 | 55.93269 | -4.32419 | 2659 ft | 208 kts | 28° |
| 2026-04-29 10:21 | 55.94683 | -4.31690 | 3506 ft | 222 kts | 6° |
| 2026-04-29 10:21 | 55.96268 | -4.32160 | 4198 ft | 242 kts | 338° |
| 2026-04-29 10:21 | 55.97646 | -4.34034 | 4851 ft | 262 kts | 308° |
| 2026-04-29 10:21 | 55.98361 | -4.37099 | 5548 ft | 276 kts | 276° |
| 2026-04-29 10:22 | 55.98118 | -4.40517 | 5984 ft | 281 kts | 248° |
| 2026-04-29 10:22 | 55.97324 | -4.43734 | 6015 ft | 282 kts | 240° |
| 2026-04-29 10:22 | 55.96417 | -4.46821 | 6022 ft | 281 kts | 240° |
| 2026-04-29 10:22 | 55.95535 | -4.49945 | 6018 ft | 281 kts | 237° |
| 2026-04-29 10:23 | 55.94303 | -4.52616 | 6025 ft | 278 kts | 224° |
| 2026-04-29 10:23 | 55.92952 | -4.55066 | 6019 ft | 277 kts | 221° |
| 2026-04-29 10:23 | 55.91580 | -4.57482 | 6023 ft | 277 kts | 222° |
| 2026-04-29 10:23 | 55.90219 | -4.59925 | 6022 ft | 278 kts | 223° |
| 2026-04-29 10:24 | 55.88869 | -4.62380 | 6011 ft | 277 kts | 222° |
| 2026-04-29 10:24 | 55.87520 | -4.64819 | 6009 ft | 276 kts | 222° |
| 2026-04-29 10:24 | 55.86125 | -4.67184 | 6015 ft | 276 kts | 216° |
| 2026-04-29 10:24 | 55.84595 | -4.69228 | 5983 ft | 275 kts | 212° |
| 2026-04-29 10:25 | 55.83037 | -4.71193 | 5985 ft | 275 kts | 212° |
| 2026-04-29 10:25 | 55.81472 | -4.73144 | 5979 ft | 274 kts | 212° |
| 2026-04-29 10:25 | 55.79807 | -4.74725 | 5987 ft | 269 kts | 191° |
| 2026-04-29 10:25 | 55.77998 | -4.75105 | 5968 ft | 266 kts | 179° |
| 2026-04-29 10:26 | 55.76152 | -4.75207 | 5975 ft | 265 kts | 178° |
| 2026-04-29 10:26 | 55.74305 | -4.75288 | 5975 ft | 266 kts | 178° |
| 2026-04-29 10:26 | 55.72458 | -4.75400 | 5981 ft | 266 kts | 179° |
| 2026-04-29 10:26 | 55.70607 | -4.75524 | 5974 ft | 266 kts | 179° |
| 2026-04-29 10:27 | 55.66919 | -4.75754 | 5968 ft | 264 kts | 178° |
| 2026-04-29 10:27 | 55.65080 | -4.75867 | 5967 ft | 264 kts | 178° |
| 2026-04-29 10:27 | 55.63239 | -4.75981 | 5971 ft | 265 kts | 178° |
| 2026-04-29 10:28 | 55.61400 | -4.76095 | 5968 ft | 264 kts | 178° |
| 2026-04-29 10:28 | 55.59560 | -4.76209 | 5971 ft | 264 kts | 178° |
| 2026-04-29 10:28 | 55.57716 | -4.76340 | 6111 ft | 266 kts | 179° |
| 2026-04-29 10:28 | 55.55861 | -4.76494 | 6878 ft | 267 kts | 179° |
| 2026-04-29 10:29 | 55.53988 | -4.76644 | 7808 ft | 272 kts | 178° |
| 2026-04-29 10:29 | 55.52084 | -4.76788 | 8717 ft | 276 kts | 178° |
| 2026-04-29 10:29 | 55.50151 | -4.76936 | 9626 ft | 280 kts | 178° |
| 2026-04-29 10:29 | 55.48186 | -4.77087 | 10442 ft | 288 kts | 178° |
| 2026-04-29 10:30 | 55.46138 | -4.77242 | 11020 ft | 302 kts | 178° |
| 2026-04-29 10:30 | 55.43987 | -4.77406 | 11528 ft | 318 kts | 178° |
| 2026-04-29 10:30 | 55.41732 | -4.77582 | 12192 ft | 328 kts | 178° |
| 2026-04-29 10:30 | 55.39426 | -4.77763 | 12957 ft | 335 kts | 178° |
| 2026-04-29 10:31 | 55.37081 | -4.77944 | 13764 ft | 340 kts | 177° |
| 2026-04-29 10:31 | 55.34700 | -4.78126 | 14535 ft | 345 kts | 177° |
| 2026-04-29 10:31 | 55.32289 | -4.78454 | 15242 ft | 353 kts | 185° |
| 2026-04-29 10:31 | 55.29901 | -4.79690 | 15947 ft | 365 kts | 198° |
| 2026-04-29 10:32 | 55.27593 | -4.81665 | 16661 ft | 372 kts | 201° |
| 2026-04-29 10:32 | 55.25272 | -4.83728 | 17350 ft | 376 kts | 201° |
| 2026-04-29 10:32 | 55.22953 | -4.85778 | 18041 ft | 380 kts | 201° |
| 2026-04-29 10:32 | 55.20572 | -4.87860 | 18715 ft | 385 kts | 201° |
| 2026-04-29 10:33 | 55.18165 | -4.89964 | 19283 ft | 389 kts | 201° |
| 2026-04-29 10:33 | 55.15735 | -4.92094 | 19875 ft | 393 kts | 201° |
| 2026-04-29 10:33 | 55.13278 | -4.94246 | 20444 ft | 397 kts | 201° |
| 2026-04-29 10:33 | 55.10795 | -4.96413 | 21034 ft | 401 kts | 201° |
| 2026-04-29 10:34 | 55.08260 | -4.98621 | 21602 ft | 404 kts | 201° |
| 2026-04-29 10:34 | 55.05760 | -5.00798 | 22175 ft | 408 kts | 202° |
| 2026-04-29 10:34 | 55.03214 | -5.03012 | 22731 ft | 411 kts | 202° |
| 2026-04-29 10:34 | 55.00642 | -5.05244 | 23309 ft | 415 kts | 202° |
| 2026-04-29 10:35 | 54.98048 | -5.07493 | 23850 ft | 418 kts | 202° |
| 2026-04-29 10:35 | 54.95432 | -5.09757 | 24332 ft | 422 kts | 202° |
| 2026-04-29 10:35 | 54.92795 | -5.12036 | 24785 ft | 425 kts | 202° |
| 2026-04-29 10:35 | 54.90138 | -5.14329 | 25221 ft | 428 kts | 202° |
| 2026-04-29 10:36 | 54.87436 | -5.16515 | 25672 ft | 428 kts | 197° |
| 2026-04-29 10:36 | 54.84650 | -5.18408 | 26089 ft | 431 kts | 197° |
| 2026-04-29 10:36 | 54.81840 | -5.20293 | 26509 ft | 434 kts | 197° |
| 2026-04-29 10:36 | 54.79021 | -5.22203 | 26948 ft | 438 kts | 197° |
| 2026-04-29 10:37 | 54.76179 | -5.24142 | 27345 ft | 440 kts | 197° |
| 2026-04-29 10:37 | 54.73314 | -5.26084 | 27763 ft | 443 kts | 197° |
| 2026-04-29 10:37 | 54.70430 | -5.28025 | 28161 ft | 446 kts | 197° |
| 2026-04-29 10:37 | 54.67529 | -5.29978 | 28591 ft | 448 kts | 197° |
| 2026-04-29 10:38 | 54.64630 | -5.31934 | 29126 ft | 447 kts | 197° |
| 2026-04-29 10:38 | 54.61736 | -5.33883 | 29685 ft | 446 kts | 197° |
| 2026-04-29 10:38 | 54.58846 | -5.35821 | 30196 ft | 445 kts | 197° |
| 2026-04-29 10:38 | 54.55965 | -5.37749 | 30668 ft | 445 kts | 197° |
| 2026-04-29 10:39 | 54.53082 | -5.39680 | 31088 ft | 444 kts | 197° |
| 2026-04-29 10:39 | 54.50203 | -5.41605 | 31506 ft | 443 kts | 196° |
| 2026-04-29 10:39 | 54.47330 | -5.43522 | 31934 ft | 442 kts | 196° |
| 2026-04-29 10:39 | 54.44461 | -5.45432 | 32362 ft | 442 kts | 196° |
| 2026-04-29 10:40 | 54.41597 | -5.47337 | 32773 ft | 441 kts | 196° |
| 2026-04-29 10:40 | 54.38736 | -5.49237 | 33191 ft | 440 kts | 196° |
| 2026-04-29 10:40 | 54.35881 | -5.51131 | 33632 ft | 440 kts | 195° |
| 2026-04-29 10:40 | 54.33029 | -5.53019 | 34038 ft | 439 kts | 195° |
| 2026-04-29 10:41 | 54.30184 | -5.54901 | 34425 ft | 439 kts | 195° |
| 2026-04-29 10:41 | 54.27337 | -5.56776 | 34771 ft | 438 kts | 194° |
| 2026-04-29 10:41 | 54.24463 | -5.58440 | 35104 ft | 435 kts | 192° |
| 2026-04-29 10:41 | 54.21585 | -5.60065 | 35415 ft | 435 kts | 192° |
| 2026-04-29 10:42 | 54.18710 | -5.61696 | 35750 ft | 435 kts | 193° |
| 2026-04-29 10:42 | 54.15839 | -5.63328 | 36069 ft | 435 kts | 192° |
| 2026-04-29 10:42 | 54.13009 | -5.64930 | 36260 ft | 432 kts | 192° |
| 2026-04-29 10:43 | 54.07376 | -5.68107 | 36246 ft | 425 kts | 192° |